sensor_id;sensor_type;location;lat;lon;timestamp;temperature;humidity
11838;DHT22;5978;51.020;6.764;2023-04-23T00:02:12;11.80;99.90
11838;DHT22;5978;51.020;6.764;2023-04-23T00:04:48;11.80;99.90
11838;DHT22;5978;51.020;6.764;2023-04-23T00:07:14;11.80;99.90
11838;DHT22;5978;51.020;6.764;2023-04-23T00:09:42;11.90;99.90
11838;DHT22;5978;51.020;6.764;2023-04-23T00:12:08;11.90;99.90
11838;DHT22;5978;51.020;6.764;2023-04-23T00:14:35;12.00;99.90
11838;DHT22;5978;51.020;6.764;2023-04-23T00:17:00;11.90;99.90
11838;DHT22;5978;51.020;6.764;2023-04-23T00:19:26;12.00;99.90
11838;DHT22;5978;51.020;6.764;2023-04-23T00:21:51;12.00;99.90
11838;DHT22;5978;51.020;6.764;2023-04-23T00:24:17;12.00;99.90
11838;DHT22;5978;51.020;6.764;2023-04-23T00:26:42;12.00;99.90
11838;DHT22;5978;51.020;6.764;2023-04-23T00:29:08;12.00;99.90
11838;DHT22;5978;51.020;6.764;2023-04-23T00:31:33;12.00;99.90
11838;DHT22;5978;51.020;6.764;2023-04-23T00:33:59;11.90;99.90
11838;DHT22;5978;51.020;6.764;2023-04-23T00:36:25;11.90;99.90
11838;DHT22;5978;51.020;6.764;2023-04-23T00:38:50;11.90;99.90
11838;DHT22;5978;51.020;6.764;2023-04-23T00:41:17;11.90;99.90
11838;DHT22;5978;51.020;6.764;2023-04-23T00:43:43;11.80;99.90
11838;DHT22;5978;51.020;6.764;2023-04-23T00:46:10;11.80;99.90
11838;DHT22;5978;51.020;6.764;2023-04-23T00:48:36;11.80;99.90
11838;DHT22;5978;51.020;6.764;2023-04-23T00:51:05;11.80;99.90
11838;DHT22;5978;51.020;6.764;2023-04-23T00:53:32;11.80;99.90
11838;DHT22;5978;51.020;6.764;2023-04-23T00:55:59;11.90;99.90
11838;DHT22;5978;51.020;6.764;2023-04-23T00:58:26;11.90;99.90
11838;DHT22;5978;51.020;6.764;2023-04-23T01:00:52;11.90;99.90
11838;DHT22;5978;51.020;6.764;2023-04-23T01:03:18;11.80;99.90
11838;DHT22;5978;51.020;6.764;2023-04-23T01:05:47;11.80;99.90
11838;DHT22;5978;51.020;6.764;2023-04-23T01:08:14;11.80;99.90
11838;DHT22;5978;51.020;6.764;2023-04-23T01:10:42;11.80;99.90
11838;DHT22;5978;51.020;6.764;2023-04-23T01:13:08;11.80;99.90
11838;DHT22;5978;51.020;6.764;2023-04-23T01:15:34;11.70;99.90
11838;DHT22;5978;51.020;6.764;2023-04-23T01:17:59;11.60;99.90
11838;DHT22;5978;51.020;6.764;2023-04-23T01:20:26;11.60;99.90
11838;DHT22;5978;51.020;6.764;2023-04-23T01:22:52;11.60;99.90
11838;DHT22;5978;51.020;6.764;2023-04-23T01:25:17;11.60;99.90
11838;DHT22;5978;51.020;6.764;2023-04-23T01:27:43;11.50;99.90
11838;DHT22;5978;51.020;6.764;2023-04-23T01:30:09;11.50;99.90
11838;DHT22;5978;51.020;6.764;2023-04-23T01:32:36;11.50;99.90
11838;DHT22;5978;51.020;6.764;2023-04-23T01:35:02;11.40;99.90
11838;DHT22;5978;51.020;6.764;2023-04-23T01:37:29;11.40;99.90
11838;DHT22;5978;51.020;6.764;2023-04-23T01:39:55;11.20;99.90
11838;DHT22;5978;51.020;6.764;2023-04-23T01:42:21;11.20;99.90
11838;DHT22;5978;51.020;6.764;2023-04-23T01:44:47;11.20;99.90
11838;DHT22;5978;51.020;6.764;2023-04-23T01:47:13;11.20;99.90
11838;DHT22;5978;51.020;6.764;2023-04-23T01:49:39;11.10;99.90
11838;DHT22;5978;51.020;6.764;2023-04-23T01:52:05;11.20;99.90
11838;DHT22;5978;51.020;6.764;2023-04-23T01:54:31;11.10;99.90
11838;DHT22;5978;51.020;6.764;2023-04-23T01:56:56;11.20;99.90
11838;DHT22;5978;51.020;6.764;2023-04-23T01:59:23;11.20;99.90
11838;DHT22;5978;51.020;6.764;2023-04-23T02:01:49;11.10;99.90
11838;DHT22;5978;51.020;6.764;2023-04-23T02:04:16;11.10;99.90
11838;DHT22;5978;51.020;6.764;2023-04-23T02:06:44;11.00;99.90
11838;DHT22;5978;51.020;6.764;2023-04-23T02:09:11;10.90;99.90
11838;DHT22;5978;51.020;6.764;2023-04-23T02:11:37;10.80;99.90
11838;DHT22;5978;51.020;6.764;2023-04-23T02:14:04;10.70;99.90
11838;DHT22;5978;51.020;6.764;2023-04-23T02:16:30;10.70;99.90
11838;DHT22;5978;51.020;6.764;2023-04-23T02:18:55;10.60;99.90
11838;DHT22;5978;51.020;6.764;2023-04-23T02:21:24;10.60;99.90
11838;DHT22;5978;51.020;6.764;2023-04-23T02:23:51;10.60;99.90
11838;DHT22;5978;51.020;6.764;2023-04-23T02:26:17;10.50;99.90
11838;DHT22;5978;51.020;6.764;2023-04-23T02:28:43;10.40;99.90
11838;DHT22;5978;51.020;6.764;2023-04-23T02:31:09;10.40;99.90
11838;DHT22;5978;51.020;6.764;2023-04-23T02:33:34;10.30;99.90
11838;DHT22;5978;51.020;6.764;2023-04-23T02:36:00;10.30;99.90
11838;DHT22;5978;51.020;6.764;2023-04-23T02:38:26;10.30;99.90
11838;DHT22;5978;51.020;6.764;2023-04-23T02:40:52;10.30;99.90
11838;DHT22;5978;51.020;6.764;2023-04-23T02:43:17;10.30;99.90
11838;DHT22;5978;51.020;6.764;2023-04-23T02:45:43;10.30;99.90
11838;DHT22;5978;51.020;6.764;2023-04-23T02:48:14;10.30;99.90
11838;DHT22;5978;51.020;6.764;2023-04-23T02:50:40;10.40;99.90
11838;DHT22;5978;51.020;6.764;2023-04-23T02:53:06;10.40;99.90
11838;DHT22;5978;51.020;6.764;2023-04-23T02:55:31;10.40;99.90
11838;DHT22;5978;51.020;6.764;2023-04-23T02:57:57;10.50;99.90
11838;DHT22;5978;51.020;6.764;2023-04-23T03:00:24;10.50;99.90
11838;DHT22;5978;51.020;6.764;2023-04-23T03:02:50;10.40;99.90
11838;DHT22;5978;51.020;6.764;2023-04-23T03:05:16;10.40;99.90
11838;DHT22;5978;51.020;6.764;2023-04-23T03:07:42;10.50;99.90
11838;DHT22;5978;51.020;6.764;2023-04-23T03:10:08;10.50;99.90
11838;DHT22;5978;51.020;6.764;2023-04-23T03:12:34;10.50;99.90
11838;DHT22;5978;51.020;6.764;2023-04-23T03:14:59;10.60;99.90
11838;DHT22;5978;51.020;6.764;2023-04-23T03:17:25;10.50;99.90
11838;DHT22;5978;51.020;6.764;2023-04-23T03:19:50;10.50;99.90
11838;DHT22;5978;51.020;6.764;2023-04-23T03:22:16;10.50;99.90
11838;DHT22;5978;51.020;6.764;2023-04-23T03:24:42;10.60;99.90
11838;DHT22;5978;51.020;6.764;2023-04-23T03:27:07;10.50;99.90
11838;DHT22;5978;51.020;6.764;2023-04-23T03:29:33;10.60;99.90
11838;DHT22;5978;51.020;6.764;2023-04-23T03:31:59;10.50;99.90
11838;DHT22;5978;51.020;6.764;2023-04-23T03:34:24;10.50;99.90
11838;DHT22;5978;51.020;6.764;2023-04-23T03:36:50;10.50;99.90
11838;DHT22;5978;51.020;6.764;2023-04-23T03:39:15;10.50;99.90
11838;DHT22;5978;51.020;6.764;2023-04-23T03:41:42;10.50;99.90
11838;DHT22;5978;51.020;6.764;2023-04-23T03:44:07;10.50;99.90
11838;DHT22;5978;51.020;6.764;2023-04-23T03:46:33;10.50;99.90
11838;DHT22;5978;51.020;6.764;2023-04-23T03:48:59;10.50;99.90
11838;DHT22;5978;51.020;6.764;2023-04-23T03:51:24;10.50;99.90
11838;DHT22;5978;51.020;6.764;2023-04-23T03:53:51;10.60;99.90
11838;DHT22;5978;51.020;6.764;2023-04-23T03:56:17;10.50;99.90
11838;DHT22;5978;51.020;6.764;2023-04-23T03:58:42;10.60;99.90
11838;DHT22;5978;51.020;6.764;2023-04-23T04:01:08;10.60;99.90
11838;DHT22;5978;51.020;6.764;2023-04-23T04:03:33;10.60;99.90
11838;DHT22;5978;51.020;6.764;2023-04-23T04:05:59;10.60;99.90
11838;DHT22;5978;51.020;6.764;2023-04-23T04:08:25;10.60;99.90
11838;DHT22;5978;51.020;6.764;2023-04-23T04:10:51;10.60;99.90
11838;DHT22;5978;51.020;6.764;2023-04-23T04:13:17;10.70;99.90
11838;DHT22;5978;51.020;6.764;2023-04-23T04:15:42;10.70;99.90
11838;DHT22;5978;51.020;6.764;2023-04-23T04:18:08;10.70;99.90
11838;DHT22;5978;51.020;6.764;2023-04-23T04:20:33;10.60;99.90
11838;DHT22;5978;51.020;6.764;2023-04-23T04:22:59;10.60;99.90
11838;DHT22;5978;51.020;6.764;2023-04-23T04:25:25;10.70;99.90
11838;DHT22;5978;51.020;6.764;2023-04-23T04:27:53;10.80;99.90
11838;DHT22;5978;51.020;6.764;2023-04-23T04:30:19;10.70;99.90
11838;DHT22;5978;51.020;6.764;2023-04-23T04:32:45;10.70;99.90
11838;DHT22;5978;51.020;6.764;2023-04-23T04:35:11;10.70;99.90
11838;DHT22;5978;51.020;6.764;2023-04-23T04:37:39;10.70;99.90
11838;DHT22;5978;51.020;6.764;2023-04-23T04:40:05;10.70;99.90
11838;DHT22;5978;51.020;6.764;2023-04-23T04:42:31;10.80;99.90
11838;DHT22;5978;51.020;6.764;2023-04-23T04:44:57;10.80;99.90
11838;DHT22;5978;51.020;6.764;2023-04-23T04:47:24;10.90;99.90
11838;DHT22;5978;51.020;6.764;2023-04-23T04:49:50;10.80;99.90
11838;DHT22;5978;51.020;6.764;2023-04-23T04:52:15;10.90;99.90
11838;DHT22;5978;51.020;6.764;2023-04-23T04:54:42;10.90;99.90
11838;DHT22;5978;51.020;6.764;2023-04-23T04:57:07;11.00;99.90
11838;DHT22;5978;51.020;6.764;2023-04-23T04:59:33;11.00;99.90
11838;DHT22;5978;51.020;6.764;2023-04-23T05:01:59;11.10;99.90
11838;DHT22;5978;51.020;6.764;2023-04-23T05:04:24;11.10;99.90
11838;DHT22;5978;51.020;6.764;2023-04-23T05:06:50;11.10;99.90
11838;DHT22;5978;51.020;6.764;2023-04-23T05:09:16;11.20;99.90
11838;DHT22;5978;51.020;6.764;2023-04-23T05:11:41;11.20;99.90
11838;DHT22;5978;51.020;6.764;2023-04-23T05:14:07;11.20;99.90
11838;DHT22;5978;51.020;6.764;2023-04-23T05:16:33;11.20;99.90
11838;DHT22;5978;51.020;6.764;2023-04-23T05:18:58;11.20;99.90
11838;DHT22;5978;51.020;6.764;2023-04-23T05:21:24;11.30;99.90
11838;DHT22;5978;51.020;6.764;2023-04-23T05:23:52;11.30;99.90
11838;DHT22;5978;51.020;6.764;2023-04-23T05:26:18;11.30;99.90
11838;DHT22;5978;51.020;6.764;2023-04-23T05:28:44;11.40;99.90
11838;DHT22;5978;51.020;6.764;2023-04-23T05:31:09;11.50;99.90
11838;DHT22;5978;51.020;6.764;2023-04-23T05:33:36;11.50;99.90
11838;DHT22;5978;51.020;6.764;2023-04-23T05:36:01;11.50;99.90
11838;DHT22;5978;51.020;6.764;2023-04-23T05:38:27;11.60;99.90
11838;DHT22;5978;51.020;6.764;2023-04-23T05:40:53;11.60;99.90
11838;DHT22;5978;51.020;6.764;2023-04-23T05:43:18;11.60;99.90
11838;DHT22;5978;51.020;6.764;2023-04-23T05:45:44;11.70;99.90
11838;DHT22;5978;51.020;6.764;2023-04-23T05:48:09;11.70;99.90
11838;DHT22;5978;51.020;6.764;2023-04-23T05:50:35;11.80;99.90
11838;DHT22;5978;51.020;6.764;2023-04-23T05:53:01;11.90;99.90
11838;DHT22;5978;51.020;6.764;2023-04-23T05:55:26;11.80;99.90
11838;DHT22;5978;51.020;6.764;2023-04-23T05:57:52;11.90;99.90
11838;DHT22;5978;51.020;6.764;2023-04-23T06:00:18;12.00;99.90
11838;DHT22;5978;51.020;6.764;2023-04-23T06:02:43;12.10;99.90
11838;DHT22;5978;51.020;6.764;2023-04-23T06:05:09;12.20;99.90
11838;DHT22;5978;51.020;6.764;2023-04-23T06:07:35;12.30;99.90
11838;DHT22;5978;51.020;6.764;2023-04-23T06:10:01;12.40;99.90
11838;DHT22;5978;51.020;6.764;2023-04-23T06:12:27;12.40;99.90
11838;DHT22;5978;51.020;6.764;2023-04-23T06:14:53;12.40;99.90
11838;DHT22;5978;51.020;6.764;2023-04-23T06:17:19;12.50;99.90
11838;DHT22;5978;51.020;6.764;2023-04-23T06:19:44;12.50;99.90
11838;DHT22;5978;51.020;6.764;2023-04-23T06:22:10;12.50;99.90
11838;DHT22;5978;51.020;6.764;2023-04-23T06:24:35;12.50;99.90
11838;DHT22;5978;51.020;6.764;2023-04-23T06:27:01;12.50;99.90
11838;DHT22;5978;51.020;6.764;2023-04-23T06:29:27;12.60;99.90
11838;DHT22;5978;51.020;6.764;2023-04-23T06:31:54;12.70;99.90
11838;DHT22;5978;51.020;6.764;2023-04-23T06:34:21;12.70;99.90
11838;DHT22;5978;51.020;6.764;2023-04-23T06:36:46;12.80;99.90
11838;DHT22;5978;51.020;6.764;2023-04-23T06:39:12;13.00;99.90
11838;DHT22;5978;51.020;6.764;2023-04-23T06:41:38;13.10;99.90
11838;DHT22;5978;51.020;6.764;2023-04-23T06:44:03;13.20;99.90
11838;DHT22;5978;51.020;6.764;2023-04-23T06:46:29;13.30;99.90
11838;DHT22;5978;51.020;6.764;2023-04-23T06:48:54;13.40;99.90
11838;DHT22;5978;51.020;6.764;2023-04-23T06:51:20;13.50;99.90
11838;DHT22;5978;51.020;6.764;2023-04-23T06:53:46;13.60;99.90
11838;DHT22;5978;51.020;6.764;2023-04-23T06:56:12;13.60;99.90
11838;DHT22;5978;51.020;6.764;2023-04-23T06:58:38;13.80;99.90
11838;DHT22;5978;51.020;6.764;2023-04-23T07:01:05;13.90;99.90
11838;DHT22;5978;51.020;6.764;2023-04-23T07:03:32;14.10;99.90
11838;DHT22;5978;51.020;6.764;2023-04-23T07:05:57;14.20;99.90
11838;DHT22;5978;51.020;6.764;2023-04-23T07:08:24;14.30;99.90
11838;DHT22;5978;51.020;6.764;2023-04-23T07:10:49;14.50;99.90
11838;DHT22;5978;51.020;6.764;2023-04-23T07:13:19;14.60;99.90
11838;DHT22;5978;51.020;6.764;2023-04-23T07:15:45;14.70;99.90
11838;DHT22;5978;51.020;6.764;2023-04-23T07:18:11;14.90;99.90
11838;DHT22;5978;51.020;6.764;2023-04-23T07:20:37;15.00;99.90
11838;DHT22;5978;51.020;6.764;2023-04-23T07:23:03;15.00;99.90
11838;DHT22;5978;51.020;6.764;2023-04-23T07:25:29;15.10;99.90
11838;DHT22;5978;51.020;6.764;2023-04-23T07:27:58;15.40;99.90
11838;DHT22;5978;51.020;6.764;2023-04-23T07:30:25;15.40;99.90
11838;DHT22;5978;51.020;6.764;2023-04-23T07:32:52;15.40;99.90
11838;DHT22;5978;51.020;6.764;2023-04-23T07:35:18;15.30;99.90
11838;DHT22;5978;51.020;6.764;2023-04-23T07:37:44;15.30;99.90
11838;DHT22;5978;51.020;6.764;2023-04-23T07:40:10;15.30;99.90
11838;DHT22;5978;51.020;6.764;2023-04-23T07:42:36;15.40;99.90
11838;DHT22;5978;51.020;6.764;2023-04-23T07:45:04;15.50;99.90
11838;DHT22;5978;51.020;6.764;2023-04-23T07:47:30;15.70;99.90
11838;DHT22;5978;51.020;6.764;2023-04-23T07:49:56;15.90;99.90
11838;DHT22;5978;51.020;6.764;2023-04-23T07:52:22;16.00;99.90
11838;DHT22;5978;51.020;6.764;2023-04-23T07:54:48;16.10;99.90
11838;DHT22;5978;51.020;6.764;2023-04-23T07:57:14;16.40;99.90
11838;DHT22;5978;51.020;6.764;2023-04-23T07:59:40;16.70;99.90
11838;DHT22;5978;51.020;6.764;2023-04-23T08:02:08;16.90;99.90
11838;DHT22;5978;51.020;6.764;2023-04-23T08:04:34;17.30;99.90
11838;DHT22;5978;51.020;6.764;2023-04-23T08:07:00;17.10;99.90
11838;DHT22;5978;51.020;6.764;2023-04-23T08:09:26;17.10;99.90
11838;DHT22;5978;51.020;6.764;2023-04-23T08:11:52;16.90;99.90
11838;DHT22;5978;51.020;6.764;2023-04-23T08:14:17;16.70;99.90
11838;DHT22;5978;51.020;6.764;2023-04-23T08:16:45;16.50;99.90
11838;DHT22;5978;51.020;6.764;2023-04-23T08:19:11;16.50;99.90
11838;DHT22;5978;51.020;6.764;2023-04-23T08:21:36;16.60;99.90
11838;DHT22;5978;51.020;6.764;2023-04-23T08:24:02;16.90;99.90
11838;DHT22;5978;51.020;6.764;2023-04-23T08:26:29;17.10;99.90
11838;DHT22;5978;51.020;6.764;2023-04-23T08:28:54;17.20;99.90
11838;DHT22;5978;51.020;6.764;2023-04-23T08:31:21;17.20;99.90
11838;DHT22;5978;51.020;6.764;2023-04-23T08:33:46;17.20;99.90
11838;DHT22;5978;51.020;6.764;2023-04-23T08:36:12;17.20;99.90
11838;DHT22;5978;51.020;6.764;2023-04-23T08:38:39;17.30;99.90
11838;DHT22;5978;51.020;6.764;2023-04-23T08:41:09;17.40;99.90
11838;DHT22;5978;51.020;6.764;2023-04-23T08:46:19;17.40;99.90
11838;DHT22;5978;51.020;6.764;2023-04-23T08:48:47;17.50;99.90
11838;DHT22;5978;51.020;6.764;2023-04-23T08:51:17;17.50;99.90
11838;DHT22;5978;51.020;6.764;2023-04-23T08:53:48;17.50;99.90
11838;DHT22;5978;51.020;6.764;2023-04-23T08:56:16;17.70;99.90
11838;DHT22;5978;51.020;6.764;2023-04-23T08:58:44;17.90;99.90
11838;DHT22;5978;51.020;6.764;2023-04-23T09:01:11;17.90;99.90
11838;DHT22;5978;51.020;6.764;2023-04-23T09:03:38;18.10;99.90
11838;DHT22;5978;51.020;6.764;2023-04-23T09:06:05;18.20;99.90
11838;DHT22;5978;51.020;6.764;2023-04-23T09:08:31;18.30;99.90
11838;DHT22;5978;51.020;6.764;2023-04-23T09:11:00;18.30;99.90
11838;DHT22;5978;51.020;6.764;2023-04-23T09:13:27;18.60;99.90
11838;DHT22;5978;51.020;6.764;2023-04-23T09:15:54;19.10;99.90
11838;DHT22;5978;51.020;6.764;2023-04-23T09:18:20;19.20;99.90
11838;DHT22;5978;51.020;6.764;2023-04-23T09:20:46;19.20;99.90
11838;DHT22;5978;51.020;6.764;2023-04-23T09:23:15;18.90;99.90
11838;DHT22;5978;51.020;6.764;2023-04-23T09:25:41;18.70;99.90
11838;DHT22;5978;51.020;6.764;2023-04-23T09:28:08;18.70;99.90
11838;DHT22;5978;51.020;6.764;2023-04-23T09:30:53;18.40;99.90
11838;DHT22;5978;51.020;6.764;2023-04-23T09:33:22;18.30;99.90
11838;DHT22;5978;51.020;6.764;2023-04-23T09:35:48;18.10;99.90
11838;DHT22;5978;51.020;6.764;2023-04-23T09:38:14;18.10;99.90
11838;DHT22;5978;51.020;6.764;2023-04-23T09:40:40;18.20;99.90
11838;DHT22;5978;51.020;6.764;2023-04-23T09:43:09;18.10;99.90
11838;DHT22;5978;51.020;6.764;2023-04-23T09:45:35;18.20;99.90
11838;DHT22;5978;51.020;6.764;2023-04-23T09:48:02;18.10;99.90
11838;DHT22;5978;51.020;6.764;2023-04-23T09:50:32;18.10;99.90
11838;DHT22;5978;51.020;6.764;2023-04-23T09:52:58;18.20;99.90
11838;DHT22;5978;51.020;6.764;2023-04-23T09:55:34;18.20;99.90
11838;DHT22;5978;51.020;6.764;2023-04-23T09:58:06;18.30;99.90
11838;DHT22;5978;51.020;6.764;2023-04-23T10:00:34;18.40;99.90
11838;DHT22;5978;51.020;6.764;2023-04-23T10:03:02;18.60;99.90
11838;DHT22;5978;51.020;6.764;2023-04-23T10:05:28;18.70;99.90
11838;DHT22;5978;51.020;6.764;2023-04-23T10:07:55;18.90;99.90
11838;DHT22;5978;51.020;6.764;2023-04-23T10:10:23;19.00;99.90
11838;DHT22;5978;51.020;6.764;2023-04-23T10:12:51;18.90;99.90
11838;DHT22;5978;51.020;6.764;2023-04-23T10:15:18;19.00;99.90
11838;DHT22;5978;51.020;6.764;2023-04-23T10:17:45;19.00;99.90
11838;DHT22;5978;51.020;6.764;2023-04-23T10:20:12;19.10;99.90
11838;DHT22;5978;51.020;6.764;2023-04-23T10:22:43;19.40;99.90
11838;DHT22;5978;51.020;6.764;2023-04-23T10:25:11;19.50;99.90
11838;DHT22;5978;51.020;6.764;2023-04-23T10:27:42;19.70;99.90
11838;DHT22;5978;51.020;6.764;2023-04-23T10:30:10;19.60;99.90
11838;DHT22;5978;51.020;6.764;2023-04-23T10:32:36;19.80;99.90
11838;DHT22;5978;51.020;6.764;2023-04-23T10:35:03;19.60;99.90
11838;DHT22;5978;51.020;6.764;2023-04-23T10:37:30;19.50;99.90
11838;DHT22;5978;51.020;6.764;2023-04-23T10:40:07;19.40;99.90
11838;DHT22;5978;51.020;6.764;2023-04-23T10:42:37;19.10;99.90
11838;DHT22;5978;51.020;6.764;2023-04-23T10:45:11;19.10;99.90
11838;DHT22;5978;51.020;6.764;2023-04-23T10:47:38;18.80;99.90
11838;DHT22;5978;51.020;6.764;2023-04-23T10:50:23;18.50;99.90
11838;DHT22;5978;51.020;6.764;2023-04-23T10:52:50;18.20;99.90
11838;DHT22;5978;51.020;6.764;2023-04-23T10:55:28;18.20;99.90
11838;DHT22;5978;51.020;6.764;2023-04-23T10:58:05;18.50;99.90
11838;DHT22;5978;51.020;6.764;2023-04-23T11:00:45;18.80;99.90
11838;DHT22;5978;51.020;6.764;2023-04-23T11:03:31;19.60;99.90
11838;DHT22;5978;51.020;6.764;2023-04-23T11:06:02;20.30;99.90
11838;DHT22;5978;51.020;6.764;2023-04-23T11:08:29;20.10;99.90
11838;DHT22;5978;51.020;6.764;2023-04-23T11:10:59;19.80;99.90
11838;DHT22;5978;51.020;6.764;2023-04-23T11:13:26;19.60;99.90
11838;DHT22;5978;51.020;6.764;2023-04-23T11:16:22;19.40;99.90
11838;DHT22;5978;51.020;6.764;2023-04-23T11:19:17;18.90;99.90
11838;DHT22;5978;51.020;6.764;2023-04-23T11:22:02;18.70;99.90
11838;DHT22;5978;51.020;6.764;2023-04-23T11:24:36;18.50;99.90
11838;DHT22;5978;51.020;6.764;2023-04-23T11:27:07;18.60;99.90
11838;DHT22;5978;51.020;6.764;2023-04-23T11:29:35;18.80;99.90
11838;DHT22;5978;51.020;6.764;2023-04-23T11:32:00;18.80;99.90
11838;DHT22;5978;51.020;6.764;2023-04-23T11:34:27;18.90;99.90
11838;DHT22;5978;51.020;6.764;2023-04-23T11:36:54;19.20;99.90
11838;DHT22;5978;51.020;6.764;2023-04-23T11:39:22;19.50;99.90
11838;DHT22;5978;51.020;6.764;2023-04-23T11:41:51;19.90;98.70
11838;DHT22;5978;51.020;6.764;2023-04-23T11:44:19;19.90;95.60
11838;DHT22;5978;51.020;6.764;2023-04-23T11:46:48;20.30;93.00
11838;DHT22;5978;51.020;6.764;2023-04-23T11:49:18;20.80;92.40
11838;DHT22;5978;51.020;6.764;2023-04-23T11:51:44;21.00;90.80
11838;DHT22;5978;51.020;6.764;2023-04-23T11:54:11;21.20;90.50
11838;DHT22;5978;51.020;6.764;2023-04-23T11:56:38;21.40;82.40
11838;DHT22;5978;51.020;6.764;2023-04-23T11:59:04;21.20;79.40
11838;DHT22;5978;51.020;6.764;2023-04-23T12:01:41;21.30;78.30
11838;DHT22;5978;51.020;6.764;2023-04-23T12:04:30;21.10;74.50
11838;DHT22;5978;51.020;6.764;2023-04-23T12:06:57;21.40;78.80
11838;DHT22;5978;51.020;6.764;2023-04-23T12:09:25;21.70;76.20
11838;DHT22;5978;51.020;6.764;2023-04-23T12:11:52;22.00;71.60
11838;DHT22;5978;51.020;6.764;2023-04-23T12:14:22;22.80;72.00
11838;DHT22;5978;51.020;6.764;2023-04-23T12:16:51;23.50;75.90
11838;DHT22;5978;51.020;6.764;2023-04-23T12:19:21;24.20;69.20
11838;DHT22;5978;51.020;6.764;2023-04-23T12:21:57;24.80;64.00
11838;DHT22;5978;51.020;6.764;2023-04-23T12:24:29;24.80;62.40
11838;DHT22;5978;51.020;6.764;2023-04-23T12:26:59;25.10;62.50
11838;DHT22;5978;51.020;6.764;2023-04-23T12:29:29;25.60;61.80
11838;DHT22;5978;51.020;6.764;2023-04-23T12:31:58;25.20;62.10
11838;DHT22;5978;51.020;6.764;2023-04-23T12:34:24;25.10;60.50
11838;DHT22;5978;51.020;6.764;2023-04-23T12:36:54;24.30;61.80
11838;DHT22;5978;51.020;6.764;2023-04-23T12:39:30;24.00;63.80
11838;DHT22;5978;51.020;6.764;2023-04-23T12:42:04;23.90;62.30
11838;DHT22;5978;51.020;6.764;2023-04-23T12:44:31;24.30;61.00
11838;DHT22;5978;51.020;6.764;2023-04-23T12:47:09;24.70;59.60
11838;DHT22;5978;51.020;6.764;2023-04-23T12:49:43;24.80;60.80
11838;DHT22;5978;51.020;6.764;2023-04-23T12:52:10;24.80;60.70
11838;DHT22;5978;51.020;6.764;2023-04-23T12:54:38;24.90;59.60
11838;DHT22;5978;51.020;6.764;2023-04-23T12:57:05;25.00;59.90
11838;DHT22;5978;51.020;6.764;2023-04-23T12:59:32;25.00;59.80
11838;DHT22;5978;51.020;6.764;2023-04-23T13:01:58;26.00;59.70
11838;DHT22;5978;51.020;6.764;2023-04-23T13:04:32;25.10;57.10
11838;DHT22;5978;51.020;6.764;2023-04-23T13:06:58;24.20;59.30
11838;DHT22;5978;51.020;6.764;2023-04-23T13:09:24;24.40;60.50
11838;DHT22;5978;51.020;6.764;2023-04-23T13:11:52;24.30;61.80
11838;DHT22;5978;51.020;6.764;2023-04-23T13:14:18;23.50;63.20
11838;DHT22;5978;51.020;6.764;2023-04-23T13:16:45;22.70;65.40
11838;DHT22;5978;51.020;6.764;2023-04-23T13:19:12;22.30;64.90
11838;DHT22;5978;51.020;6.764;2023-04-23T13:21:38;21.70;65.10
11838;DHT22;5978;51.020;6.764;2023-04-23T13:24:07;21.10;66.70
11838;DHT22;5978;51.020;6.764;2023-04-23T13:26:33;20.70;67.60
11838;DHT22;5978;51.020;6.764;2023-04-23T13:29:00;20.50;70.10
11838;DHT22;5978;51.020;6.764;2023-04-23T13:31:27;20.30;68.80
11838;DHT22;5978;51.020;6.764;2023-04-23T13:33:53;20.50;71.40
11838;DHT22;5978;51.020;6.764;2023-04-23T13:36:20;20.70;72.60
11838;DHT22;5978;51.020;6.764;2023-04-23T13:38:47;20.70;71.80
11838;DHT22;5978;51.020;6.764;2023-04-23T13:41:13;20.80;73.30
11838;DHT22;5978;51.020;6.764;2023-04-23T13:43:39;20.70;72.00
11838;DHT22;5978;51.020;6.764;2023-04-23T13:46:05;20.40;71.00
11838;DHT22;5978;51.020;6.764;2023-04-23T13:48:31;20.40;73.40
11838;DHT22;5978;51.020;6.764;2023-04-23T13:50:58;20.30;73.80
11838;DHT22;5978;51.020;6.764;2023-04-23T13:53:25;19.90;75.30
11838;DHT22;5978;51.020;6.764;2023-04-23T13:55:53;19.70;77.50
11838;DHT22;5978;51.020;6.764;2023-04-23T13:58:20;19.50;79.20
11838;DHT22;5978;51.020;6.764;2023-04-23T14:00:46;19.40;84.50
11838;DHT22;5978;51.020;6.764;2023-04-23T14:03:12;19.40;82.70
11838;DHT22;5978;51.020;6.764;2023-04-23T14:05:39;19.30;83.60
11838;DHT22;5978;51.020;6.764;2023-04-23T14:08:05;19.20;86.60
11838;DHT22;5978;51.020;6.764;2023-04-23T14:10:31;19.20;90.30
11838;DHT22;5978;51.020;6.764;2023-04-23T14:12:57;19.30;90.20
11838;DHT22;5978;51.020;6.764;2023-04-23T14:15:23;19.20;81.90
11838;DHT22;5978;51.020;6.764;2023-04-23T14:17:50;19.10;80.40
11838;DHT22;5978;51.020;6.764;2023-04-23T14:20:16;19.10;81.50
11838;DHT22;5978;51.020;6.764;2023-04-23T14:23:42;19.10;86.40
11838;DHT22;5978;51.020;6.764;2023-04-23T14:26:03;19.10;89.30
11838;DHT22;5978;51.020;6.764;2023-04-23T14:28:50;19.00;92.30
11838;DHT22;5978;51.020;6.764;2023-04-23T14:31:16;18.90;93.30
11838;DHT22;5978;51.020;6.764;2023-04-23T14:33:42;19.00;95.30
11838;DHT22;5978;51.020;6.764;2023-04-23T14:36:08;18.90;97.30
11838;DHT22;5978;51.020;6.764;2023-04-23T14:38:37;18.80;98.10
11838;DHT22;5978;51.020;6.764;2023-04-23T14:41:03;18.70;99.90
11838;DHT22;5978;51.020;6.764;2023-04-23T14:43:30;18.60;99.20
11838;DHT22;5978;51.020;6.764;2023-04-23T14:45:56;18.50;99.90
11838;DHT22;5978;51.020;6.764;2023-04-23T14:48:22;18.40;99.90
11838;DHT22;5978;51.020;6.764;2023-04-23T14:50:48;18.30;99.90
11838;DHT22;5978;51.020;6.764;2023-04-23T14:53:14;18.20;99.90
11838;DHT22;5978;51.020;6.764;2023-04-23T14:55:40;18.10;99.90
11838;DHT22;5978;51.020;6.764;2023-04-23T14:58:07;18.00;99.90
11838;DHT22;5978;51.020;6.764;2023-04-23T15:00:33;17.90;99.90
11838;DHT22;5978;51.020;6.764;2023-04-23T15:03:02;17.70;99.90
11838;DHT22;5978;51.020;6.764;2023-04-23T15:05:38;17.50;99.90
11838;DHT22;5978;51.020;6.764;2023-04-23T15:08:05;17.40;99.90
11838;DHT22;5978;51.020;6.764;2023-04-23T15:10:30;17.30;99.90
11838;DHT22;5978;51.020;6.764;2023-04-23T15:15:49;16.80;99.90
11838;DHT22;5978;51.020;6.764;2023-04-23T15:18:15;16.50;99.90
11838;DHT22;5978;51.020;6.764;2023-04-23T15:20:43;16.20;99.90
11838;DHT22;5978;51.020;6.764;2023-04-23T15:23:09;15.80;99.90
11838;DHT22;5978;51.020;6.764;2023-04-23T15:25:36;15.50;99.90
11838;DHT22;5978;51.020;6.764;2023-04-23T15:28:03;15.40;99.90
11838;DHT22;5978;51.020;6.764;2023-04-23T15:30:29;15.20;99.90
11838;DHT22;5978;51.020;6.764;2023-04-23T15:32:55;15.10;99.90
11838;DHT22;5978;51.020;6.764;2023-04-23T15:35:25;15.00;99.90
11838;DHT22;5978;51.020;6.764;2023-04-23T15:37:52;14.80;99.90
11838;DHT22;5978;51.020;6.764;2023-04-23T15:40:18;14.60;99.90
11838;DHT22;5978;51.020;6.764;2023-04-23T15:42:44;14.50;99.90
11838;DHT22;5978;51.020;6.764;2023-04-23T15:45:11;14.40;99.90
11838;DHT22;5978;51.020;6.764;2023-04-23T15:47:37;14.30;99.90
11838;DHT22;5978;51.020;6.764;2023-04-23T15:50:04;14.20;99.90
11838;DHT22;5978;51.020;6.764;2023-04-23T15:52:30;14.20;99.90